createdAt,value
2022-10-13T00:00:25.297Z,82.64
2022-10-13T00:02:53.235Z,83.21
2022-10-13T00:05:21.398Z,82.03
2022-10-13T00:07:49.356Z,82.87
2022-10-13T00:10:17.323Z,82.99
2022-10-13T00:12:46.606Z,82.93
2022-10-13T00:15:16.210Z,82.28
2022-10-13T00:17:44.215Z,82.83
2022-10-13T00:20:13.112Z,83.04
2022-10-13T00:22:41.085Z,83.33
2022-10-13T00:25:09.932Z,83.48
2022-10-13T00:27:58.738Z,82.77
2022-10-13T00:30:35.116Z,82.81
2022-10-13T00:33:03.040Z,82.92
2022-10-13T00:35:31.103Z,82.50
2022-10-13T00:37:59.053Z,82.43
2022-10-13T00:40:31.101Z,82.05
2022-10-13T00:43:00.450Z,82.48
2022-10-13T00:45:29.834Z,82.10
2022-10-13T00:47:59.904Z,81.98
2022-10-13T00:50:32.930Z,81.57
2022-10-13T00:53:05.651Z,81.48
2022-10-13T00:55:37.985Z,81.32
2022-10-13T00:58:11.665Z,81.07
2022-10-13T01:00:39.803Z,81.15
2022-10-13T01:03:07.758Z,80.83
2022-10-13T01:05:36.715Z,81.01
2022-10-13T01:08:05.253Z,80.92
2022-10-13T01:10:51.504Z,80.92
2022-10-13T01:13:28.034Z,80.84
2022-10-13T01:16:06.110Z,81.05
2022-10-13T01:18:43.655Z,80.73
2022-10-13T01:21:26.061Z,80.89
2022-10-13T01:24:18.007Z,80.89
2022-10-13T01:27:04.783Z,81.34
2022-10-13T01:30:08.554Z,81.17
2022-10-13T01:33:04.389Z,81.16
2022-10-13T01:35:45.329Z,81.51
2022-10-13T01:38:23.186Z,81.33
2022-10-13T01:41:00.498Z,81.47
2022-10-13T01:43:32.030Z,81.86
2022-10-13T01:46:04.775Z,82.04
2022-10-13T01:48:36.819Z,81.73
2022-10-13T01:51:08.286Z,81.55
2022-10-13T01:53:37.069Z,82.17
2022-10-13T01:56:05.512Z,82.29
2022-10-13T01:58:36.601Z,82.44
2022-10-13T02:01:14.018Z,82.93
2022-10-13T02:03:54.142Z,83.07
2022-10-13T02:06:26.627Z,82.99
2022-10-13T02:09:00.542Z,82.42
2022-10-13T02:11:29.609Z,83.00
2022-10-13T02:14:03.064Z,83.13
2022-10-13T02:16:35.248Z,82.72
2022-10-13T02:19:06.321Z,82.82
2022-10-13T02:21:35.691Z,82.72
2022-10-13T02:24:04.742Z,82.79
2022-10-13T02:26:33.975Z,82.65
2022-10-13T02:29:11.677Z,82.53
2022-10-13T02:31:41.041Z,82.89
2022-10-13T02:34:10.748Z,82.60
2022-10-13T02:36:39.813Z,82.21
2022-10-13T02:39:08.708Z,82.42
2022-10-13T02:41:36.714Z,82.97
2022-10-13T02:44:05.018Z,83.75
2022-10-13T02:46:41.791Z,82.78
2022-10-13T02:49:12.242Z,83.65
2022-10-13T02:51:40.723Z,83.44
2022-10-13T02:54:08.819Z,84.21
2022-10-13T02:56:36.760Z,84.31
2022-10-13T02:59:04.919Z,82.94
2022-10-13T03:01:32.967Z,83.09
2022-10-13T03:04:00.909Z,82.83
2022-10-13T03:06:30.205Z,83.23
2022-10-13T03:08:58.130Z,85.02
2022-10-13T03:11:26.178Z,84.69
2022-10-13T03:13:54.226Z,84.86
2022-10-13T03:16:22.167Z,84.87
2022-10-13T03:18:50.074Z,84.24
2022-10-13T03:21:18.236Z,84.54
2022-10-13T03:23:47.607Z,84.65
2022-10-13T03:26:16.259Z,84.59
2022-10-13T03:28:44.221Z,84.46
2022-10-13T03:31:13.094Z,84.12
2022-10-13T03:33:41.379Z,83.92
2022-10-13T03:36:09.724Z,83.99
2022-10-13T03:38:39.048Z,83.72
2022-10-13T03:41:13.220Z,83.35
2022-10-13T03:43:42.359Z,83.97
2022-10-13T03:46:12.859Z,83.65
2022-10-13T03:48:42.700Z,83.19
2022-10-13T03:51:12.040Z,83.73
2022-10-13T03:53:46.497Z,83.26
2022-10-13T03:56:19.068Z,83.74
2022-10-13T03:58:54.224Z,83.74
2022-10-13T04:01:23.318Z,83.79
2022-10-13T04:03:52.682Z,83.70
2022-10-13T04:06:20.727Z,83.60
2022-10-13T04:08:49.537Z,83.67
2022-10-13T04:11:19.999Z,83.28
2022-10-13T04:13:52.406Z,83.18
2022-10-13T04:16:21.931Z,83.79
2022-10-13T04:18:53.303Z,83.55
2022-10-13T04:21:21.459Z,83.61
2022-10-13T04:23:49.374Z,83.58
2022-10-13T04:26:21.923Z,83.52
2022-10-13T04:28:51.834Z,83.33
2022-10-13T04:31:22.009Z,83.41
2022-10-13T04:33:50.444Z,83.27
2022-10-13T04:36:19.444Z,83.12
2022-10-13T04:38:51.170Z,83.51
2022-10-13T04:41:20.940Z,83.25
2022-10-13T04:43:49.923Z,83.39
2022-10-13T04:46:20.609Z,83.36
2022-10-13T04:48:49.920Z,83.95
2022-10-13T04:51:20.293Z,84.08
2022-10-13T04:54:05.523Z,84.20
2022-10-13T04:56:35.185Z,84.00
2022-10-13T04:59:05.243Z,83.90
2022-10-13T05:01:34.403Z,83.99
2022-10-13T05:04:05.209Z,83.79
2022-10-13T05:06:53.400Z,83.74
2022-10-13T05:09:27.322Z,83.92
2022-10-13T05:11:57.274Z,83.73
2022-10-13T05:14:25.641Z,83.84
2022-10-13T05:16:53.686Z,83.86
2022-10-13T05:19:21.712Z,83.67
2022-10-13T05:21:50.527Z,83.75
2022-10-13T05:24:20.719Z,84.06
2022-10-13T05:26:50.639Z,83.99
2022-10-13T05:29:19.921Z,84.33
2022-10-13T05:31:48.368Z,84.24
2022-10-13T05:34:16.347Z,84.46
2022-10-13T05:36:44.342Z,84.35
2022-10-13T05:39:13.085Z,84.08
2022-10-13T05:41:41.095Z,84.15
2022-10-13T05:44:16.604Z,84.26
2022-10-13T05:46:55.906Z,83.97
2022-10-13T05:49:23.875Z,83.97
2022-10-13T05:51:54.532Z,83.80
2022-10-13T05:54:30.570Z,83.79
2022-10-13T05:57:02.756Z,83.91
2022-10-13T05:59:35.328Z,83.76
2022-10-13T06:02:07.421Z,83.68
2022-10-13T06:04:38.938Z,83.41
2022-10-13T06:07:07.477Z,83.29
2022-10-13T06:09:38.793Z,83.09
2022-10-13T06:12:07.433Z,82.99
2022-10-13T06:14:35.437Z,82.99
2022-10-13T06:17:09.130Z,82.84
2022-10-13T06:19:38.423Z,82.53
2022-10-13T06:22:09.450Z,82.37
2022-10-13T06:24:37.420Z,82.36
2022-10-13T06:27:08.258Z,81.88
2022-10-13T06:29:37.589Z,81.93
2022-10-13T06:32:06.325Z,81.94
2022-10-13T06:34:35.611Z,81.41
2022-10-13T06:37:03.552Z,81.33
2022-10-13T06:39:31.507Z,81.30
2022-10-13T06:42:03.442Z,80.98
2022-10-13T06:44:32.649Z,81.20
2022-10-13T06:47:03.695Z,80.83
2022-10-13T06:49:31.617Z,80.56
2022-10-13T06:52:00.929Z,80.14
2022-10-13T06:54:28.966Z,80.38
2022-10-13T06:56:57.067Z,80.08
2022-10-13T06:59:26.407Z,79.73
2022-10-13T07:01:54.527Z,79.41
2022-10-13T07:04:23.504Z,79.39
2022-10-13T07:06:52.654Z,79.03
2022-10-13T07:09:21.966Z,78.84
2022-10-13T07:11:50.178Z,78.13
2022-10-13T07:14:18.103Z,78.48
2022-10-13T07:16:46.082Z,78.18
2022-10-13T07:19:13.984Z,77.85
2022-10-13T07:21:42.733Z,78.28
2022-10-13T07:24:12.277Z,77.60
2022-10-13T07:26:41.640Z,77.27
2022-10-13T07:29:10.326Z,76.73
2022-10-13T07:31:38.358Z,76.03
2022-10-13T07:34:06.710Z,75.43
2022-10-13T07:36:35.466Z,74.80
2022-10-13T07:39:04.485Z,74.33
2022-10-13T07:41:32.508Z,73.58
2022-10-13T07:44:01.866Z,73.17
2022-10-13T07:46:30.018Z,72.91
2022-10-13T07:48:58.060Z,71.59
2022-10-13T07:51:26.080Z,71.23
2022-10-13T07:53:54.054Z,71.07
2022-10-13T07:56:21.991Z,70.90
2022-10-13T07:58:49.885Z,70.99
2022-10-13T08:01:19.407Z,70.96
2022-10-13T08:03:50.355Z,70.73
2022-10-13T08:06:19.759Z,70.78
2022-10-13T08:08:48.430Z,71.32
2022-10-13T08:11:18.595Z,71.32
2022-10-13T08:13:50.111Z,71.46
2022-10-13T08:16:24.008Z,70.50
2022-10-13T08:18:52.901Z,69.10
2022-10-13T08:21:52.825Z,68.33
2022-10-13T08:24:13.888Z,65.10
2022-10-13T08:26:43.260Z,58.64
2022-10-13T08:29:26.796Z,55.49
2022-10-13T08:31:57.067Z,57.59
2022-10-13T08:34:38.041Z,60.64
2022-10-13T08:37:07.094Z,60.99
2022-10-13T08:39:37.592Z,62.06
2022-10-13T08:42:15.680Z,61.05
2022-10-13T08:47:44.393Z,62.82
2022-10-13T08:50:17.058Z,63.96
2022-10-13T08:52:49.990Z,64.40
2022-10-13T08:55:24.747Z,64.83
2022-10-13T08:57:53.008Z,65.02
2022-10-13T09:00:27.387Z,65.73
2022-10-13T09:03:02.769Z,65.80
2022-10-13T09:05:38.800Z,64.69
2022-10-13T09:08:49.820Z,64.46
2022-10-13T09:11:29.804Z,63.85
2022-10-13T09:14:00.267Z,62.43
2022-10-13T09:16:30.797Z,59.88
2022-10-13T09:19:18.827Z,59.85
2022-10-13T09:21:47.096Z,59.12
2022-10-13T09:24:20.889Z,53.79
2022-10-13T09:26:52.900Z,48.93
2022-10-13T09:29:25.302Z,55.44
2022-10-13T09:32:09.134Z,58.98
2022-10-13T09:34:38.664Z,59.55
2022-10-13T09:37:08.338Z,59.92
2022-10-13T09:39:36.491Z,58.41
2022-10-13T09:42:22.247Z,53.36
2022-10-13T09:44:58.740Z,50.96
2022-10-13T09:47:29.601Z,47.94
2022-10-13T09:50:07.323Z,50.26
2022-10-13T09:52:36.320Z,51.88
2022-10-13T09:55:27.577Z,51.65
2022-10-13T09:58:07.645Z,51.87
2022-10-13T10:00:37.474Z,52.81
2022-10-13T10:03:11.973Z,53.79
2022-10-13T10:05:50.359Z,51.28
2022-10-13T10:08:33.735Z,48.34
2022-10-13T10:11:14.806Z,47.84
2022-10-13T10:13:42.777Z,44.61
2022-10-13T10:16:15.541Z,45.48
2022-10-13T10:18:49.340Z,48.38
2022-10-13T10:21:28.466Z,50.87
2022-10-13T10:24:02.165Z,51.97
2022-10-13T10:26:42.637Z,52.23
2022-10-13T10:29:23.328Z,50.85
2022-10-13T10:32:04.110Z,49.68
2022-10-13T10:34:43.537Z,50.32
2022-10-13T10:37:22.785Z,50.02
2022-10-13T10:40:04.223Z,48.59
2022-10-13T10:42:56.601Z,48.84
2022-10-13T10:45:28.206Z,47.01
2022-10-13T10:48:00.793Z,47.70
2022-10-13T10:50:31.940Z,44.30
2022-10-13T10:53:05.367Z,45.55
2022-10-13T10:55:43.930Z,45.81
2022-10-13T10:58:23.444Z,45.43
2022-10-13T11:00:56.691Z,42.14
2022-10-13T11:03:39.247Z,40.51
2022-10-13T11:06:23.971Z,37.73
2022-10-13T11:08:55.254Z,40.55
2022-10-13T11:11:38.322Z,42.42
2022-10-13T11:14:31.460Z,44.45
2022-10-13T11:17:21.202Z,46.32
2022-10-13T11:19:49.975Z,45.53
2022-10-13T11:22:23.947Z,46.45
2022-10-13T11:24:56.855Z,47.94
2022-10-13T11:27:39.017Z,48.42
2022-10-13T11:30:47.557Z,49.22
2022-10-13T11:33:36.580Z,50.54
2022-10-13T11:36:33.891Z,49.27
2022-10-13T11:39:08.108Z,48.55
2022-10-13T11:41:47.130Z,43.29
2022-10-13T11:44:22.781Z,42.62
2022-10-13T11:47:05.602Z,40.25
2022-10-13T11:49:50.932Z,38.75
2022-10-13T11:52:31.935Z,37.51
2022-10-13T11:55:06.258Z,40.15
2022-10-13T11:57:35.600Z,42.17
2022-10-13T12:00:05.484Z,43.90
2022-10-13T12:02:50.438Z,44.70
2022-10-13T12:05:24.626Z,46.13
2022-10-13T12:07:54.928Z,47.45
2022-10-13T12:10:30.887Z,48.77
2022-10-13T12:13:04.290Z,48.69
2022-10-13T12:15:36.273Z,49.09
2022-10-13T12:18:38.880Z,48.49
2022-10-13T12:21:23.081Z,48.44
2022-10-13T12:23:52.680Z,48.60
2022-10-13T12:26:22.746Z,48.78
2022-10-13T12:28:56.296Z,47.88
2022-10-13T12:31:37.640Z,48.49
2022-10-13T12:34:18.450Z,47.79
2022-10-13T12:39:21.317Z,47.05
2022-10-13T12:41:50.465Z,47.87
2022-10-13T12:44:22.989Z,48.96
2022-10-13T12:46:53.154Z,49.31
2022-10-13T12:49:23.957Z,49.22
2022-10-13T12:51:55.635Z,49.00
2022-10-13T12:54:27.171Z,48.93
2022-10-13T12:56:58.810Z,48.30
2022-10-13T12:59:30.090Z,48.69
2022-10-13T13:02:01.181Z,49.40
2022-10-13T13:04:42.256Z,49.79
2022-10-13T13:07:38.228Z,49.75
2022-10-13T13:10:18.368Z,50.75
2022-10-13T13:12:46.971Z,50.48
2022-10-13T13:15:34.395Z,50.67
2022-10-13T13:18:31.445Z,50.71
2022-10-13T13:21:01.793Z,51.02
2022-10-13T13:23:34.189Z,51.59
2022-10-13T13:26:12.211Z,52.00
2022-10-13T13:28:43.704Z,51.34
2022-10-13T13:31:14.075Z,51.78
2022-10-13T13:33:42.220Z,52.14
2022-10-13T13:36:16.858Z,52.55
2022-10-13T13:38:47.742Z,52.59
2022-10-13T13:41:16.903Z,52.87
2022-10-13T13:43:45.185Z,52.63
2022-10-13T13:46:19.130Z,52.91
2022-10-13T13:48:47.218Z,52.91
2022-10-13T13:51:16.083Z,53.11
2022-10-13T13:53:45.554Z,52.91
2022-10-13T13:56:15.046Z,52.99
2022-10-13T13:58:43.190Z,53.66
2022-10-13T14:01:11.794Z,53.67
2022-10-13T14:03:41.629Z,54.06
2022-10-13T14:06:10.071Z,53.53
2022-10-13T14:08:42.316Z,53.78
2022-10-13T14:11:11.616Z,53.87
2022-10-13T14:13:39.753Z,53.89
2022-10-13T14:16:08.365Z,54.34
2022-10-13T14:18:36.323Z,53.84
2022-10-13T14:21:10.953Z,53.35
2022-10-13T14:23:39.783Z,53.65
2022-10-13T14:26:09.150Z,53.87
2022-10-13T14:28:37.408Z,53.35
2022-10-13T14:31:07.759Z,53.86
2022-10-13T14:33:36.826Z,53.66
2022-10-13T14:36:08.302Z,53.84
2022-10-13T14:38:38.704Z,54.17
2022-10-13T14:41:07.911Z,54.17
2022-10-13T14:43:36.577Z,54.26
2022-10-13T14:46:06.551Z,53.99
2022-10-13T14:48:36.440Z,54.59
2022-10-13T14:51:07.559Z,54.41
2022-10-13T14:53:36.361Z,55.27
2022-10-13T14:56:05.383Z,54.64
2022-10-13T14:58:35.573Z,55.13
2022-10-13T15:01:04.546Z,55.65
2022-10-13T15:03:33.072Z,55.36
2022-10-13T15:06:01.087Z,55.40
2022-10-13T15:08:31.823Z,55.30
2022-10-13T15:11:00.832Z,55.70
2022-10-13T15:13:28.980Z,55.48
2022-10-13T15:16:00.948Z,55.39
2022-10-13T15:18:29.589Z,55.60
2022-10-13T15:20:58.318Z,56.06
2022-10-13T15:23:26.969Z,55.76
2022-10-13T15:25:58.015Z,56.16
2022-10-13T15:28:27.586Z,56.39
2022-10-13T15:30:55.791Z,56.83
2022-10-13T15:33:23.960Z,57.36
2022-10-13T15:35:52.873Z,57.89
2022-10-13T15:38:22.228Z,57.61
2022-10-13T15:40:50.961Z,58.18
2022-10-13T15:43:20.695Z,58.39
2022-10-13T15:45:55.904Z,58.85
2022-10-13T15:48:24.285Z,58.83
2022-10-13T15:50:52.354Z,59.00
2022-10-13T15:53:20.803Z,59.17
2022-10-13T15:55:48.940Z,59.43
2022-10-13T15:58:17.341Z,59.76
2022-10-13T16:00:46.810Z,60.04
2022-10-13T16:03:16.422Z,60.14
2022-10-13T16:05:45.162Z,60.30
2022-10-13T16:08:13.510Z,60.37
2022-10-13T16:10:42.328Z,60.78
2022-10-13T16:13:14.047Z,61.06
2022-10-13T16:15:42.109Z,61.30
2022-10-13T16:18:11.474Z,61.30
2022-10-13T16:20:45.160Z,61.62
2022-10-13T16:23:13.155Z,61.64
2022-10-13T16:25:41.129Z,61.59
2022-10-13T16:28:09.148Z,61.64
2022-10-13T16:30:38.250Z,61.82
2022-10-13T16:33:06.230Z,61.96
2022-10-13T16:35:35.524Z,61.90
2022-10-13T16:38:03.526Z,61.96
2022-10-13T16:40:32.409Z,62.05
2022-10-13T16:43:00.362Z,62.39
2022-10-13T16:45:47.921Z,62.53
2022-10-13T16:48:16.392Z,62.96
2022-10-13T16:50:46.162Z,62.88
2022-10-13T16:53:14.317Z,63.28
2022-10-13T16:55:42.519Z,63.23
2022-10-13T16:58:10.945Z,63.79
2022-10-13T17:00:39.873Z,63.94
2022-10-13T17:03:08.300Z,64.45
2022-10-13T17:05:36.265Z,64.68
2022-10-13T17:08:05.845Z,65.06
2022-10-13T17:10:34.301Z,65.11
2022-10-13T17:13:02.538Z,65.23
2022-10-13T17:15:33.156Z,65.90
2022-10-13T17:18:01.141Z,66.14
2022-10-13T17:20:29.057Z,66.57
2022-10-13T17:22:57.065Z,66.64
2022-10-13T17:25:26.364Z,66.95
2022-10-13T17:27:54.486Z,67.18
2022-10-13T17:30:22.818Z,67.21
2022-10-13T17:32:50.703Z,67.55
2022-10-13T17:35:18.830Z,67.80
2022-10-13T17:37:49.932Z,68.35
2022-10-13T17:40:19.249Z,68.56
2022-10-13T17:42:48.685Z,68.12
2022-10-13T17:45:17.152Z,68.48
2022-10-13T17:47:48.771Z,68.54
2022-10-13T17:50:16.974Z,68.24
2022-10-13T17:52:44.969Z,68.21
2022-10-13T17:55:13.169Z,68.46
2022-10-13T17:57:41.276Z,68.15
2022-10-13T18:00:12.375Z,68.28
2022-10-13T18:02:43.160Z,68.29
2022-10-13T18:05:11.203Z,68.59
2022-10-13T18:07:39.249Z,68.71
2022-10-13T18:10:08.166Z,68.59
2022-10-13T18:12:36.337Z,68.95
2022-10-13T18:15:04.701Z,68.50
2022-10-13T18:17:34.039Z,67.92
2022-10-13T18:20:02.044Z,68.09
2022-10-13T18:22:30.199Z,68.11
2022-10-13T18:25:00.068Z,67.92
2022-10-13T18:27:28.118Z,67.94
2022-10-13T18:29:56.086Z,67.60
2022-10-13T18:32:24.330Z,68.01
2022-10-13T18:34:56.152Z,68.02
2022-10-13T18:37:24.210Z,67.62
2022-10-13T18:39:52.129Z,67.93
2022-10-13T18:42:20.175Z,68.14
2022-10-13T18:44:48.136Z,68.58
2022-10-13T18:47:16.068Z,68.39
2022-10-13T18:49:44.008Z,69.11
2022-10-13T18:52:13.575Z,68.78
2022-10-13T18:54:41.692Z,69.02
2022-10-13T18:57:09.601Z,69.35
2022-10-13T18:59:38.677Z,69.75
2022-10-13T19:02:19.155Z,70.04
2022-10-13T19:04:48.962Z,70.29
2022-10-13T19:07:18.667Z,70.69
2022-10-13T19:09:46.877Z,70.74
2022-10-13T19:12:15.070Z,71.22
2022-10-13T19:14:44.555Z,70.91
2022-10-13T19:17:12.515Z,71.15
2022-10-13T19:19:41.456Z,71.63
2022-10-13T19:22:10.082Z,71.69
2022-10-13T19:24:39.599Z,72.18
2022-10-13T19:27:07.671Z,72.14
2022-10-13T19:29:37.355Z,72.10
2022-10-13T19:32:05.917Z,72.08
2022-10-13T19:34:33.989Z,72.57
2022-10-13T19:37:03.529Z,72.69
2022-10-13T19:39:31.547Z,73.40
2022-10-13T19:42:01.027Z,72.98
2022-10-13T19:44:29.093Z,74.37
2022-10-13T19:46:57.089Z,78.16
2022-10-13T19:49:26.412Z,77.76
2022-10-13T19:51:54.904Z,77.47
2022-10-13T19:54:23.676Z,77.23
2022-10-13T19:56:51.838Z,78.02
2022-10-13T19:59:21.326Z,78.68
2022-10-13T20:01:49.473Z,79.38
2022-10-13T20:04:20.496Z,80.30
2022-10-13T20:06:49.191Z,79.25
2022-10-13T20:09:17.618Z,80.48
2022-10-13T20:11:46.488Z,79.75
2022-10-13T20:14:15.069Z,79.58
2022-10-13T20:16:44.949Z,79.24
2022-10-13T20:19:14.431Z,80.95
2022-10-13T20:21:43.028Z,80.93
2022-10-13T20:24:12.230Z,80.27
2022-10-13T20:26:40.849Z,80.73
2022-10-13T20:29:09.015Z,80.14
2022-10-13T20:31:37.158Z,80.11
2022-10-13T20:34:06.612Z,80.07
2022-10-13T20:36:38.519Z,81.08
2022-10-13T20:39:07.649Z,80.53
2022-10-13T20:41:38.343Z,80.43
2022-10-13T20:44:10.326Z,80.74
2022-10-13T20:46:38.337Z,80.75
2022-10-13T20:49:12.247Z,81.33
2022-10-13T20:51:42.548Z,80.60
2022-10-13T20:54:11.316Z,79.74
2022-10-13T20:56:39.891Z,80.21
2022-10-13T20:59:09.981Z,81.08
2022-10-13T21:01:38.246Z,80.14
2022-10-13T21:04:07.689Z,79.97
2022-10-13T21:06:36.056Z,80.38
2022-10-13T21:09:05.720Z,80.22
2022-10-13T21:11:34.196Z,80.33
2022-10-13T21:14:06.208Z,79.97
2022-10-13T21:16:34.768Z,80.71
2022-10-13T21:19:03.583Z,80.17
2022-10-13T21:21:34.600Z,81.23
2022-10-13T21:24:05.651Z,81.33
2022-10-13T21:26:34.835Z,80.76
2022-10-13T21:29:03.719Z,81.16
2022-10-13T21:31:32.670Z,80.52
2022-10-13T21:34:00.815Z,80.86
2022-10-13T21:36:30.343Z,81.14
2022-10-13T21:39:01.115Z,81.11
2022-10-13T21:41:29.698Z,80.59
2022-10-13T21:43:58.473Z,81.21
2022-10-13T21:46:32.902Z,81.11
2022-10-13T21:49:02.562Z,80.62
2022-10-13T21:51:32.507Z,80.78
2022-10-13T21:54:03.911Z,80.27
2022-10-13T21:56:32.806Z,80.23
2022-10-13T21:59:01.672Z,81.19
2022-10-13T22:01:30.190Z,80.29
2022-10-13T22:04:02.401Z,80.23
2022-10-13T22:06:32.238Z,79.83
2022-10-13T22:09:03.467Z,79.90
2022-10-13T22:11:33.740Z,80.16
2022-10-13T22:14:07.832Z,80.03
2022-10-13T22:16:38.844Z,80.63
2022-10-13T22:19:07.138Z,80.25
2022-10-13T22:21:40.654Z,79.83
2022-10-13T22:24:13.266Z,80.34
2022-10-13T22:26:42.549Z,79.93
2022-10-13T22:29:13.040Z,80.14
2022-10-13T22:31:41.910Z,79.41
2022-10-13T22:34:12.816Z,80.53
2022-10-13T22:36:44.420Z,80.90
2022-10-13T22:39:15.024Z,81.28
2022-10-13T22:41:43.221Z,81.09
2022-10-13T22:44:11.427Z,81.35
2022-10-13T22:46:39.883Z,81.01
2022-10-13T22:49:13.302Z,81.83
2022-10-13T22:51:41.503Z,82.24
2022-10-13T22:54:10.606Z,82.18
2022-10-13T22:56:41.776Z,83.19
2022-10-13T22:59:10.344Z,83.57
2022-10-13T23:01:38.326Z,83.15
2022-10-13T23:04:06.845Z,83.55
2022-10-13T23:06:36.316Z,83.84
2022-10-13T23:09:09.170Z,84.30
2022-10-13T23:11:39.016Z,84.34
2022-10-13T23:14:09.205Z,84.75
2022-10-13T23:16:37.256Z,84.80
2022-10-13T23:19:05.496Z,84.43
2022-10-13T23:21:33.537Z,84.40
2022-10-13T23:24:03.032Z,84.63
2022-10-13T23:26:31.972Z,84.91
2022-10-13T23:29:01.757Z,84.67
2022-10-13T23:31:30.068Z,84.57
2022-10-13T23:33:58.757Z,84.58
2022-10-13T23:36:30.185Z,84.67
2022-10-13T23:39:00.783Z,84.50
2022-10-13T23:41:29.321Z,84.22
2022-10-13T23:43:57.747Z,84.22
2022-10-13T23:46:27.757Z,84.63
2022-10-13T23:48:55.889Z,84.07
2022-10-13T23:51:25.873Z,84.34
2022-10-13T23:53:54.284Z,84.62
2022-10-13T23:56:22.660Z,84.36
2022-10-13T23:58:51.550Z,83.91
